sensor_id;sensor_type;location;lat;lon;timestamp;temperature;humidity
306;DHT22;137;48.578;9.180;2023-10-31T00:01:41;11.00;98.20
306;DHT22;137;48.578;9.180;2023-10-31T00:04:07;11.00;98.20
306;DHT22;137;48.578;9.180;2023-10-31T00:06:34;11.00;98.20
306;DHT22;137;48.578;9.180;2023-10-31T00:09:01;11.00;98.20
306;DHT22;137;48.578;9.180;2023-10-31T00:11:29;11.00;98.20
306;DHT22;137;48.578;9.180;2023-10-31T00:13:55;11.00;98.20
306;DHT22;137;48.578;9.180;2023-10-31T00:16:22;11.10;98.20
306;DHT22;137;48.578;9.180;2023-10-31T00:18:49;11.00;98.20
306;DHT22;137;48.578;9.180;2023-10-31T00:21:16;11.00;98.20
306;DHT22;137;48.578;9.180;2023-10-31T00:23:43;11.00;98.20
306;DHT22;137;48.578;9.180;2023-10-31T00:26:10;11.00;98.20
306;DHT22;137;48.578;9.180;2023-10-31T00:28:39;11.00;98.20
306;DHT22;137;48.578;9.180;2023-10-31T00:31:05;11.00;98.20
306;DHT22;137;48.578;9.180;2023-10-31T00:33:33;11.00;98.20
306;DHT22;137;48.578;9.180;2023-10-31T00:36:01;10.90;98.20
306;DHT22;137;48.578;9.180;2023-10-31T00:38:28;10.90;98.20
306;DHT22;137;48.578;9.180;2023-10-31T00:40:55;10.90;98.20
306;DHT22;137;48.578;9.180;2023-10-31T00:43:21;10.90;98.20
306;DHT22;137;48.578;9.180;2023-10-31T00:45:49;10.90;98.20
306;DHT22;137;48.578;9.180;2023-10-31T00:48:16;10.80;98.20
306;DHT22;137;48.578;9.180;2023-10-31T00:50:43;10.80;98.20
306;DHT22;137;48.578;9.180;2023-10-31T00:53:10;10.80;98.20
306;DHT22;137;48.578;9.180;2023-10-31T00:55:39;10.80;98.20
306;DHT22;137;48.578;9.180;2023-10-31T00:58:05;10.80;98.20
306;DHT22;137;48.578;9.180;2023-10-31T01:00:32;10.80;98.20
306;DHT22;137;48.578;9.180;2023-10-31T01:03:01;10.80;98.20
306;DHT22;137;48.578;9.180;2023-10-31T01:05:27;10.70;98.20
306;DHT22;137;48.578;9.180;2023-10-31T01:07:54;10.70;98.20
306;DHT22;137;48.578;9.180;2023-10-31T01:10:21;10.70;98.20
306;DHT22;137;48.578;9.180;2023-10-31T01:12:48;10.70;98.20
306;DHT22;137;48.578;9.180;2023-10-31T01:15:15;10.70;98.20
306;DHT22;137;48.578;9.180;2023-10-31T01:17:42;10.70;98.20
306;DHT22;137;48.578;9.180;2023-10-31T01:20:10;10.70;98.20
306;DHT22;137;48.578;9.180;2023-10-31T01:22:38;10.70;98.20
306;DHT22;137;48.578;9.180;2023-10-31T01:25:05;10.70;98.20
306;DHT22;137;48.578;9.180;2023-10-31T01:27:32;10.70;98.20
306;DHT22;137;48.578;9.180;2023-10-31T01:29:58;10.60;98.20
306;DHT22;137;48.578;9.180;2023-10-31T01:32:25;10.50;98.20
306;DHT22;137;48.578;9.180;2023-10-31T01:34:52;10.40;98.20
306;DHT22;137;48.578;9.180;2023-10-31T01:37:20;10.40;98.20
306;DHT22;137;48.578;9.180;2023-10-31T01:39:47;10.30;98.20
306;DHT22;137;48.578;9.180;2023-10-31T01:42:14;10.30;98.20
306;DHT22;137;48.578;9.180;2023-10-31T01:44:41;10.20;98.20
306;DHT22;137;48.578;9.180;2023-10-31T01:47:08;10.20;98.20
306;DHT22;137;48.578;9.180;2023-10-31T01:49:35;10.10;98.20
306;DHT22;137;48.578;9.180;2023-10-31T01:52:03;10.10;98.20
306;DHT22;137;48.578;9.180;2023-10-31T01:54:32;10.10;98.20
306;DHT22;137;48.578;9.180;2023-10-31T01:57:00;10.10;98.20
306;DHT22;137;48.578;9.180;2023-10-31T01:59:27;10.10;98.20
306;DHT22;137;48.578;9.180;2023-10-31T02:01:55;10.10;98.20
306;DHT22;137;48.578;9.180;2023-10-31T02:04:22;10.00;98.20
306;DHT22;137;48.578;9.180;2023-10-31T02:06:49;10.00;98.20
306;DHT22;137;48.578;9.180;2023-10-31T02:09:16;10.00;98.20
306;DHT22;137;48.578;9.180;2023-10-31T02:11:44;10.00;98.20
306;DHT22;137;48.578;9.180;2023-10-31T02:14:10;10.00;98.20
306;DHT22;137;48.578;9.180;2023-10-31T02:16:37;10.00;98.20
306;DHT22;137;48.578;9.180;2023-10-31T02:19:04;10.00;98.20
306;DHT22;137;48.578;9.180;2023-10-31T02:21:32;10.00;98.20
306;DHT22;137;48.578;9.180;2023-10-31T02:24:01;10.00;98.20
306;DHT22;137;48.578;9.180;2023-10-31T02:26:30;10.00;98.20
306;DHT22;137;48.578;9.180;2023-10-31T02:28:57;10.10;98.20
306;DHT22;137;48.578;9.180;2023-10-31T02:31:24;10.10;98.20
306;DHT22;137;48.578;9.180;2023-10-31T02:33:51;10.10;98.20
306;DHT22;137;48.578;9.180;2023-10-31T02:36:18;10.10;98.20
306;DHT22;137;48.578;9.180;2023-10-31T02:38:45;10.10;98.20
306;DHT22;137;48.578;9.180;2023-10-31T02:41:14;10.10;98.20
306;DHT22;137;48.578;9.180;2023-10-31T02:43:41;10.10;98.20
306;DHT22;137;48.578;9.180;2023-10-31T02:46:08;10.10;98.20
306;DHT22;137;48.578;9.180;2023-10-31T02:48:37;10.10;98.20
306;DHT22;137;48.578;9.180;2023-10-31T02:51:05;10.20;98.20
306;DHT22;137;48.578;9.180;2023-10-31T02:53:32;10.20;98.20
306;DHT22;137;48.578;9.180;2023-10-31T02:55:58;10.20;98.20
306;DHT22;137;48.578;9.180;2023-10-31T02:58:26;10.30;98.20
306;DHT22;137;48.578;9.180;2023-10-31T03:00:53;10.30;98.20
306;DHT22;137;48.578;9.180;2023-10-31T03:03:20;10.30;98.20
306;DHT22;137;48.578;9.180;2023-10-31T03:05:47;10.30;98.20
306;DHT22;137;48.578;9.180;2023-10-31T03:08:13;10.30;98.20
306;DHT22;137;48.578;9.180;2023-10-31T03:10:43;10.30;98.20
306;DHT22;137;48.578;9.180;2023-10-31T03:13:09;10.30;98.20
306;DHT22;137;48.578;9.180;2023-10-31T03:15:37;10.30;98.20
306;DHT22;137;48.578;9.180;2023-10-31T03:18:04;10.30;98.20
306;DHT22;137;48.578;9.180;2023-10-31T03:20:31;10.30;98.20
306;DHT22;137;48.578;9.180;2023-10-31T03:22:58;10.20;98.20
306;DHT22;137;48.578;9.180;2023-10-31T03:25:25;10.10;98.20
306;DHT22;137;48.578;9.180;2023-10-31T03:27:51;10.10;98.20
306;DHT22;137;48.578;9.180;2023-10-31T03:30:18;10.10;98.20
306;DHT22;137;48.578;9.180;2023-10-31T03:32:46;10.00;98.20
306;DHT22;137;48.578;9.180;2023-10-31T03:35:13;9.90;98.20
306;DHT22;137;48.578;9.180;2023-10-31T03:37:39;9.90;98.20
306;DHT22;137;48.578;9.180;2023-10-31T03:40:08;9.80;98.20
306;DHT22;137;48.578;9.180;2023-10-31T03:42:35;9.80;98.20
306;DHT22;137;48.578;9.180;2023-10-31T03:45:01;9.80;98.20
306;DHT22;137;48.578;9.180;2023-10-31T03:47:28;9.70;98.20
306;DHT22;137;48.578;9.180;2023-10-31T03:49:56;9.70;98.20
306;DHT22;137;48.578;9.180;2023-10-31T03:52:23;9.60;98.20
306;DHT22;137;48.578;9.180;2023-10-31T03:54:50;9.60;98.20
306;DHT22;137;48.578;9.180;2023-10-31T03:57:16;9.60;98.20
306;DHT22;137;48.578;9.180;2023-10-31T03:59:43;9.60;98.20
306;DHT22;137;48.578;9.180;2023-10-31T04:02:10;9.60;98.20
306;DHT22;137;48.578;9.180;2023-10-31T04:04:37;9.50;98.20
306;DHT22;137;48.578;9.180;2023-10-31T04:07:05;9.50;98.20
306;DHT22;137;48.578;9.180;2023-10-31T04:09:32;9.50;98.20
306;DHT22;137;48.578;9.180;2023-10-31T04:11:59;9.50;98.20
306;DHT22;137;48.578;9.180;2023-10-31T04:14:25;9.50;98.20
306;DHT22;137;48.578;9.180;2023-10-31T04:16:52;9.50;98.20
306;DHT22;137;48.578;9.180;2023-10-31T04:19:19;9.50;98.20
306;DHT22;137;48.578;9.180;2023-10-31T04:21:46;9.50;98.20
306;DHT22;137;48.578;9.180;2023-10-31T04:24:14;9.50;98.20
306;DHT22;137;48.578;9.180;2023-10-31T04:26:40;9.50;98.20
306;DHT22;137;48.578;9.180;2023-10-31T04:29:07;9.50;98.20
306;DHT22;137;48.578;9.180;2023-10-31T04:31:34;9.50;98.20
306;DHT22;137;48.578;9.180;2023-10-31T04:34:00;9.50;98.20
306;DHT22;137;48.578;9.180;2023-10-31T04:36:27;9.50;98.20
306;DHT22;137;48.578;9.180;2023-10-31T04:38:54;9.50;98.20
306;DHT22;137;48.578;9.180;2023-10-31T04:41:22;9.60;98.20
306;DHT22;137;48.578;9.180;2023-10-31T04:43:49;9.50;98.20
306;DHT22;137;48.578;9.180;2023-10-31T04:46:15;9.50;98.20
306;DHT22;137;48.578;9.180;2023-10-31T04:48:42;9.50;98.20
306;DHT22;137;48.578;9.180;2023-10-31T04:51:09;9.50;98.20
306;DHT22;137;48.578;9.180;2023-10-31T04:53:35;9.60;98.20
306;DHT22;137;48.578;9.180;2023-10-31T04:56:03;9.60;98.20
306;DHT22;137;48.578;9.180;2023-10-31T04:58:31;9.60;98.20
306;DHT22;137;48.578;9.180;2023-10-31T05:00:57;9.60;98.20
306;DHT22;137;48.578;9.180;2023-10-31T05:03:25;9.60;98.20
306;DHT22;137;48.578;9.180;2023-10-31T05:05:52;9.60;98.20
306;DHT22;137;48.578;9.180;2023-10-31T05:08:18;9.50;98.20
306;DHT22;137;48.578;9.180;2023-10-31T05:10:45;9.50;98.20
306;DHT22;137;48.578;9.180;2023-10-31T05:13:13;9.50;98.20
306;DHT22;137;48.578;9.180;2023-10-31T05:15:41;9.50;98.20
306;DHT22;137;48.578;9.180;2023-10-31T05:18:07;9.40;98.20
306;DHT22;137;48.578;9.180;2023-10-31T05:20:34;9.40;98.20
306;DHT22;137;48.578;9.180;2023-10-31T05:23:01;9.30;98.20
306;DHT22;137;48.578;9.180;2023-10-31T05:25:28;9.30;98.20
306;DHT22;137;48.578;9.180;2023-10-31T05:27:55;9.30;98.20
306;DHT22;137;48.578;9.180;2023-10-31T05:30:21;9.20;98.20
306;DHT22;137;48.578;9.180;2023-10-31T05:32:50;9.20;98.20
306;DHT22;137;48.578;9.180;2023-10-31T05:35:17;9.20;98.20
306;DHT22;137;48.578;9.180;2023-10-31T05:37:45;9.20;98.20
306;DHT22;137;48.578;9.180;2023-10-31T05:40:12;9.20;98.20
306;DHT22;137;48.578;9.180;2023-10-31T05:42:39;9.10;98.20
306;DHT22;137;48.578;9.180;2023-10-31T05:45:06;9.10;98.20
306;DHT22;137;48.578;9.180;2023-10-31T05:47:33;9.10;98.20
306;DHT22;137;48.578;9.180;2023-10-31T05:50:01;9.00;98.20
306;DHT22;137;48.578;9.180;2023-10-31T05:52:28;9.00;98.20
306;DHT22;137;48.578;9.180;2023-10-31T05:54:55;9.00;98.20
306;DHT22;137;48.578;9.180;2023-10-31T05:57:22;8.90;98.20
306;DHT22;137;48.578;9.180;2023-10-31T05:59:49;8.90;98.20
306;DHT22;137;48.578;9.180;2023-10-31T06:02:15;8.90;98.20
306;DHT22;137;48.578;9.180;2023-10-31T06:04:42;8.80;98.20
306;DHT22;137;48.578;9.180;2023-10-31T06:07:11;8.80;98.20
306;DHT22;137;48.578;9.180;2023-10-31T06:09:38;8.80;98.20
306;DHT22;137;48.578;9.180;2023-10-31T06:12:05;8.80;98.20
306;DHT22;137;48.578;9.180;2023-10-31T06:14:32;8.80;98.20
306;DHT22;137;48.578;9.180;2023-10-31T06:16:58;8.80;98.20
306;DHT22;137;48.578;9.180;2023-10-31T06:19:26;8.80;98.20
306;DHT22;137;48.578;9.180;2023-10-31T06:21:53;8.80;98.20
306;DHT22;137;48.578;9.180;2023-10-31T06:24:21;8.80;98.20
306;DHT22;137;48.578;9.180;2023-10-31T06:26:48;8.80;98.20
306;DHT22;137;48.578;9.180;2023-10-31T06:29:14;8.80;98.20
306;DHT22;137;48.578;9.180;2023-10-31T06:31:41;8.80;98.20
306;DHT22;137;48.578;9.180;2023-10-31T06:34:08;8.80;98.20
306;DHT22;137;48.578;9.180;2023-10-31T06:36:34;8.90;98.20
306;DHT22;137;48.578;9.180;2023-10-31T06:39:01;8.90;98.20
306;DHT22;137;48.578;9.180;2023-10-31T06:41:30;9.00;98.20
306;DHT22;137;48.578;9.180;2023-10-31T06:43:56;9.00;98.20
306;DHT22;137;48.578;9.180;2023-10-31T06:46:23;9.10;98.20
306;DHT22;137;48.578;9.180;2023-10-31T06:48:50;9.20;98.20
306;DHT22;137;48.578;9.180;2023-10-31T06:51:17;9.20;98.20
306;DHT22;137;48.578;9.180;2023-10-31T06:53:43;9.30;98.20
306;DHT22;137;48.578;9.180;2023-10-31T06:56:10;9.30;98.20
306;DHT22;137;48.578;9.180;2023-10-31T06:58:38;9.40;98.20
306;DHT22;137;48.578;9.180;2023-10-31T07:01:05;9.40;98.20
306;DHT22;137;48.578;9.180;2023-10-31T07:03:32;9.50;98.20
306;DHT22;137;48.578;9.180;2023-10-31T07:05:59;9.50;98.20
306;DHT22;137;48.578;9.180;2023-10-31T07:08:25;9.50;98.20
306;DHT22;137;48.578;9.180;2023-10-31T07:10:52;9.50;98.20
306;DHT22;137;48.578;9.180;2023-10-31T07:13:19;9.50;98.20
306;DHT22;137;48.578;9.180;2023-10-31T07:15:47;9.50;98.20
306;DHT22;137;48.578;9.180;2023-10-31T07:18:14;9.60;98.20
306;DHT22;137;48.578;9.180;2023-10-31T07:20:40;9.60;98.20
306;DHT22;137;48.578;9.180;2023-10-31T07:23:07;9.70;98.20
306;DHT22;137;48.578;9.180;2023-10-31T07:25:34;9.70;98.20
306;DHT22;137;48.578;9.180;2023-10-31T07:28:01;9.80;98.20
306;DHT22;137;48.578;9.180;2023-10-31T07:30:28;9.80;98.20
306;DHT22;137;48.578;9.180;2023-10-31T07:32:56;9.80;98.20
306;DHT22;137;48.578;9.180;2023-10-31T07:35:23;9.80;98.20
306;DHT22;137;48.578;9.180;2023-10-31T07:37:50;9.80;98.20
306;DHT22;137;48.578;9.180;2023-10-31T07:40:17;9.90;98.20
306;DHT22;137;48.578;9.180;2023-10-31T07:42:43;9.90;98.20
306;DHT22;137;48.578;9.180;2023-10-31T07:45:10;9.90;98.20
306;DHT22;137;48.578;9.180;2023-10-31T07:47:37;9.90;98.20
306;DHT22;137;48.578;9.180;2023-10-31T07:50:06;9.90;98.20
306;DHT22;137;48.578;9.180;2023-10-31T07:52:32;9.90;98.20
306;DHT22;137;48.578;9.180;2023-10-31T07:54:59;10.00;98.20
306;DHT22;137;48.578;9.180;2023-10-31T07:57:26;10.10;98.20
306;DHT22;137;48.578;9.180;2023-10-31T07:59:52;10.10;98.20
306;DHT22;137;48.578;9.180;2023-10-31T08:02:19;10.20;98.20
306;DHT22;137;48.578;9.180;2023-10-31T08:04:46;10.20;98.20
306;DHT22;137;48.578;9.180;2023-10-31T08:07:14;10.20;98.20
306;DHT22;137;48.578;9.180;2023-10-31T08:09:40;10.40;98.20
306;DHT22;137;48.578;9.180;2023-10-31T08:12:07;10.40;98.20
306;DHT22;137;48.578;9.180;2023-10-31T08:14:35;10.50;98.20
306;DHT22;137;48.578;9.180;2023-10-31T08:17:02;10.60;98.20
306;DHT22;137;48.578;9.180;2023-10-31T08:19:29;10.70;98.20
306;DHT22;137;48.578;9.180;2023-10-31T08:21:56;10.80;98.20
306;DHT22;137;48.578;9.180;2023-10-31T08:24:24;10.90;98.20
306;DHT22;137;48.578;9.180;2023-10-31T08:26:50;11.00;98.20
306;DHT22;137;48.578;9.180;2023-10-31T08:29:17;11.00;98.20
306;DHT22;137;48.578;9.180;2023-10-31T08:31:44;11.00;98.20
306;DHT22;137;48.578;9.180;2023-10-31T08:34:10;11.10;98.20
306;DHT22;137;48.578;9.180;2023-10-31T08:36:37;11.10;98.20
306;DHT22;137;48.578;9.180;2023-10-31T08:39:04;11.20;98.20
306;DHT22;137;48.578;9.180;2023-10-31T08:41:32;11.30;98.20
306;DHT22;137;48.578;9.180;2023-10-31T08:43:59;11.30;98.20
306;DHT22;137;48.578;9.180;2023-10-31T08:46:29;11.40;98.20
306;DHT22;137;48.578;9.180;2023-10-31T08:48:55;11.50;98.20
306;DHT22;137;48.578;9.180;2023-10-31T08:51:22;11.60;98.20
306;DHT22;137;48.578;9.180;2023-10-31T08:53:49;11.60;98.20
306;DHT22;137;48.578;9.180;2023-10-31T08:56:16;11.80;98.20
306;DHT22;137;48.578;9.180;2023-10-31T08:58:46;11.90;98.20
306;DHT22;137;48.578;9.180;2023-10-31T09:01:12;12.00;98.20
306;DHT22;137;48.578;9.180;2023-10-31T09:03:39;12.10;98.20
306;DHT22;137;48.578;9.180;2023-10-31T09:06:06;12.00;98.20
306;DHT22;137;48.578;9.180;2023-10-31T09:08:33;11.90;98.20
306;DHT22;137;48.578;9.180;2023-10-31T09:11:00;12.00;98.20
306;DHT22;137;48.578;9.180;2023-10-31T09:13:27;11.90;98.20
306;DHT22;137;48.578;9.180;2023-10-31T09:15:56;11.90;98.20
306;DHT22;137;48.578;9.180;2023-10-31T09:18:22;11.90;98.20
306;DHT22;137;48.578;9.180;2023-10-31T09:20:49;12.00;98.20
306;DHT22;137;48.578;9.180;2023-10-31T09:23:16;12.10;98.20
306;DHT22;137;48.578;9.180;2023-10-31T09:25:43;12.20;98.20
306;DHT22;137;48.578;9.180;2023-10-31T09:28:10;12.20;98.20
306;DHT22;137;48.578;9.180;2023-10-31T09:30:37;12.30;98.20
306;DHT22;137;48.578;9.180;2023-10-31T09:33:05;12.50;98.20
306;DHT22;137;48.578;9.180;2023-10-31T09:35:39;12.60;98.20
306;DHT22;137;48.578;9.180;2023-10-31T09:38:05;12.60;98.20
306;DHT22;137;48.578;9.180;2023-10-31T09:40:33;12.60;98.20
306;DHT22;137;48.578;9.180;2023-10-31T09:43:25;12.60;98.20
306;DHT22;137;48.578;9.180;2023-10-31T09:45:52;12.60;98.20
306;DHT22;137;48.578;9.180;2023-10-31T09:48:24;12.80;98.20
306;DHT22;137;48.578;9.180;2023-10-31T09:50:55;12.90;98.20
306;DHT22;137;48.578;9.180;2023-10-31T09:53:24;12.90;98.20
306;DHT22;137;48.578;9.180;2023-10-31T09:55:54;12.90;98.20
306;DHT22;137;48.578;9.180;2023-10-31T09:58:22;12.90;98.20
306;DHT22;137;48.578;9.180;2023-10-31T10:00:49;13.10;98.20
306;DHT22;137;48.578;9.180;2023-10-31T10:03:16;13.20;98.20
306;DHT22;137;48.578;9.180;2023-10-31T10:05:49;13.40;98.20
306;DHT22;137;48.578;9.180;2023-10-31T10:08:16;13.40;98.20
306;DHT22;137;48.578;9.180;2023-10-31T10:10:53;13.50;98.20
306;DHT22;137;48.578;9.180;2023-10-31T10:13:24;13.40;98.20
306;DHT22;137;48.578;9.180;2023-10-31T10:15:51;13.40;98.20
306;DHT22;137;48.578;9.180;2023-10-31T10:18:33;13.30;98.20
306;DHT22;137;48.578;9.180;2023-10-31T10:21:07;13.20;98.20
306;DHT22;137;48.578;9.180;2023-10-31T10:23:34;13.10;98.20
306;DHT22;137;48.578;9.180;2023-10-31T10:26:02;12.90;98.20
306;DHT22;137;48.578;9.180;2023-10-31T10:28:36;12.80;98.20
306;DHT22;137;48.578;9.180;2023-10-31T10:31:03;12.80;98.20
306;DHT22;137;48.578;9.180;2023-10-31T10:33:48;12.90;98.20
306;DHT22;137;48.578;9.180;2023-10-31T10:36:16;12.90;98.20
306;DHT22;137;48.578;9.180;2023-10-31T10:38:47;13.00;98.20
306;DHT22;137;48.578;9.180;2023-10-31T10:41:44;13.00;98.20
306;DHT22;137;48.578;9.180;2023-10-31T10:44:13;13.10;98.20
306;DHT22;137;48.578;9.180;2023-10-31T10:46:50;13.10;98.20
306;DHT22;137;48.578;9.180;2023-10-31T10:49:24;13.00;98.20
306;DHT22;137;48.578;9.180;2023-10-31T10:52:01;12.90;98.20
306;DHT22;137;48.578;9.180;2023-10-31T10:54:33;12.90;98.20
306;DHT22;137;48.578;9.180;2023-10-31T10:57:15;13.00;98.20
306;DHT22;137;48.578;9.180;2023-10-31T11:00:02;13.00;98.20
306;DHT22;137;48.578;9.180;2023-10-31T11:02:30;13.10;98.20
306;DHT22;137;48.578;9.180;2023-10-31T11:05:05;13.20;98.20
306;DHT22;137;48.578;9.180;2023-10-31T11:07:38;13.10;98.20
306;DHT22;137;48.578;9.180;2023-10-31T11:10:06;13.10;98.20
306;DHT22;137;48.578;9.180;2023-10-31T11:12:36;13.00;98.20
306;DHT22;137;48.578;9.180;2023-10-31T11:15:08;13.00;98.20
306;DHT22;137;48.578;9.180;2023-10-31T11:17:41;13.10;98.20
306;DHT22;137;48.578;9.180;2023-10-31T11:20:15;13.10;98.20
306;DHT22;137;48.578;9.180;2023-10-31T11:22:45;13.20;98.20
306;DHT22;137;48.578;9.180;2023-10-31T11:25:15;13.50;98.20
306;DHT22;137;48.578;9.180;2023-10-31T11:27:42;13.70;98.20
306;DHT22;137;48.578;9.180;2023-10-31T11:30:21;13.90;98.20
306;DHT22;137;48.578;9.180;2023-10-31T11:32:48;13.90;98.20
306;DHT22;137;48.578;9.180;2023-10-31T11:35:16;13.70;98.20
306;DHT22;137;48.578;9.180;2023-10-31T11:37:47;13.70;98.20
306;DHT22;137;48.578;9.180;2023-10-31T11:40:22;13.80;98.20
306;DHT22;137;48.578;9.180;2023-10-31T11:42:50;13.90;98.20
306;DHT22;137;48.578;9.180;2023-10-31T11:45:26;14.10;98.20
306;DHT22;137;48.578;9.180;2023-10-31T11:47:52;14.30;98.20
306;DHT22;137;48.578;9.180;2023-10-31T11:50:20;14.00;98.20
306;DHT22;137;48.578;9.180;2023-10-31T11:53:06;13.70;98.20
306;DHT22;137;48.578;9.180;2023-10-31T11:55:35;13.40;98.20
306;DHT22;137;48.578;9.180;2023-10-31T11:58:18;13.30;98.20
306;DHT22;137;48.578;9.180;2023-10-31T12:00:46;13.40;98.20
306;DHT22;137;48.578;9.180;2023-10-31T12:03:21;13.50;98.20
306;DHT22;137;48.578;9.180;2023-10-31T12:05:53;13.60;98.20
306;DHT22;137;48.578;9.180;2023-10-31T12:08:28;13.90;98.20
306;DHT22;137;48.578;9.180;2023-10-31T12:11:09;14.10;98.20
306;DHT22;137;48.578;9.180;2023-10-31T12:13:41;14.10;98.20
306;DHT22;137;48.578;9.180;2023-10-31T12:16:09;14.30;98.20
306;DHT22;137;48.578;9.180;2023-10-31T12:18:45;14.50;98.20
306;DHT22;137;48.578;9.180;2023-10-31T12:21:33;14.50;98.20
306;DHT22;137;48.578;9.180;2023-10-31T12:24:04;14.40;98.20
306;DHT22;137;48.578;9.180;2023-10-31T12:26:52;14.40;98.20
306;DHT22;137;48.578;9.180;2023-10-31T12:29:29;14.40;98.20
306;DHT22;137;48.578;9.180;2023-10-31T12:32:12;14.10;98.20
306;DHT22;137;48.578;9.180;2023-10-31T12:34:43;13.90;98.20
306;DHT22;137;48.578;9.180;2023-10-31T12:37:10;13.80;98.20
306;DHT22;137;48.578;9.180;2023-10-31T12:39:45;13.60;98.20
306;DHT22;137;48.578;9.180;2023-10-31T12:42:17;13.50;98.20
306;DHT22;137;48.578;9.180;2023-10-31T12:44:44;13.40;98.20
306;DHT22;137;48.578;9.180;2023-10-31T12:47:21;13.30;98.20
306;DHT22;137;48.578;9.180;2023-10-31T12:49:47;13.30;98.20
306;DHT22;137;48.578;9.180;2023-10-31T12:52:14;13.10;98.20
306;DHT22;137;48.578;9.180;2023-10-31T12:54:41;13.00;98.20
306;DHT22;137;48.578;9.180;2023-10-31T12:57:09;13.00;98.20
306;DHT22;137;48.578;9.180;2023-10-31T12:59:37;12.90;98.20
306;DHT22;137;48.578;9.180;2023-10-31T13:02:04;12.80;98.20
306;DHT22;137;48.578;9.180;2023-10-31T13:04:32;12.80;98.20
306;DHT22;137;48.578;9.180;2023-10-31T13:07:02;12.80;98.20
306;DHT22;137;48.578;9.180;2023-10-31T13:09:30;12.80;98.20
306;DHT22;137;48.578;9.180;2023-10-31T13:12:04;12.80;98.20
306;DHT22;137;48.578;9.180;2023-10-31T13:14:32;12.90;98.20
306;DHT22;137;48.578;9.180;2023-10-31T13:17:00;13.00;98.20
306;DHT22;137;48.578;9.180;2023-10-31T13:19:28;13.00;98.20
306;DHT22;137;48.578;9.180;2023-10-31T13:21:54;13.00;98.20
306;DHT22;137;48.578;9.180;2023-10-31T13:24:21;13.00;98.20
306;DHT22;137;48.578;9.180;2023-10-31T13:26:48;13.00;98.20
306;DHT22;137;48.578;9.180;2023-10-31T13:29:17;13.00;98.20
306;DHT22;137;48.578;9.180;2023-10-31T13:31:45;13.20;98.20
306;DHT22;137;48.578;9.180;2023-10-31T13:34:11;13.30;98.20
306;DHT22;137;48.578;9.180;2023-10-31T13:36:38;13.20;98.20
306;DHT22;137;48.578;9.180;2023-10-31T13:39:05;13.20;98.20
306;DHT22;137;48.578;9.180;2023-10-31T13:41:32;13.20;98.20
306;DHT22;137;48.578;9.180;2023-10-31T13:43:58;13.40;98.20
306;DHT22;137;48.578;9.180;2023-10-31T13:46:25;13.40;98.20
306;DHT22;137;48.578;9.180;2023-10-31T13:48:53;13.50;98.20
306;DHT22;137;48.578;9.180;2023-10-31T13:51:20;13.50;98.20
306;DHT22;137;48.578;9.180;2023-10-31T13:53:47;13.40;98.20
306;DHT22;137;48.578;9.180;2023-10-31T13:56:15;13.50;98.20
306;DHT22;137;48.578;9.180;2023-10-31T13:58:42;13.40;98.20
306;DHT22;137;48.578;9.180;2023-10-31T14:01:09;13.30;98.20
306;DHT22;137;48.578;9.180;2023-10-31T14:03:36;13.30;98.20
306;DHT22;137;48.578;9.180;2023-10-31T14:06:05;13.30;98.20
306;DHT22;137;48.578;9.180;2023-10-31T14:08:31;13.20;98.20
306;DHT22;137;48.578;9.180;2023-10-31T14:10:58;13.30;98.20
306;DHT22;137;48.578;9.180;2023-10-31T14:13:28;13.50;98.20
306;DHT22;137;48.578;9.180;2023-10-31T14:15:55;13.40;98.20
306;DHT22;137;48.578;9.180;2023-10-31T14:18:21;13.40;98.20
306;DHT22;137;48.578;9.180;2023-10-31T14:20:48;13.30;98.20
306;DHT22;137;48.578;9.180;2023-10-31T14:23:16;13.10;98.20
306;DHT22;137;48.578;9.180;2023-10-31T14:25:43;13.10;98.20
306;DHT22;137;48.578;9.180;2023-10-31T14:28:10;13.00;98.20
306;DHT22;137;48.578;9.180;2023-10-31T14:30:36;12.90;98.20
306;DHT22;137;48.578;9.180;2023-10-31T14:33:03;12.70;98.20
306;DHT22;137;48.578;9.180;2023-10-31T14:35:30;12.60;98.20
306;DHT22;137;48.578;9.180;2023-10-31T14:37:56;12.60;98.20
306;DHT22;137;48.578;9.180;2023-10-31T14:40:25;12.60;98.20
306;DHT22;137;48.578;9.180;2023-10-31T14:42:51;12.60;98.20
306;DHT22;137;48.578;9.180;2023-10-31T14:45:18;12.70;98.20
306;DHT22;137;48.578;9.180;2023-10-31T14:47:45;12.70;98.20
306;DHT22;137;48.578;9.180;2023-10-31T14:50:11;12.80;98.20
306;DHT22;137;48.578;9.180;2023-10-31T14:52:38;12.90;98.20
306;DHT22;137;48.578;9.180;2023-10-31T14:55:07;12.80;98.20
306;DHT22;137;48.578;9.180;2023-10-31T14:57:35;12.80;98.20
306;DHT22;137;48.578;9.180;2023-10-31T15:00:03;12.80;98.20
306;DHT22;137;48.578;9.180;2023-10-31T15:02:29;12.60;98.20
306;DHT22;137;48.578;9.180;2023-10-31T15:04:56;12.50;98.20
306;DHT22;137;48.578;9.180;2023-10-31T15:07:23;12.50;98.20
306;DHT22;137;48.578;9.180;2023-10-31T15:09:50;12.40;98.20
306;DHT22;137;48.578;9.180;2023-10-31T15:12:16;12.40;98.20
306;DHT22;137;48.578;9.180;2023-10-31T15:14:45;12.30;98.20
306;DHT22;137;48.578;9.180;2023-10-31T15:17:11;12.30;98.20
306;DHT22;137;48.578;9.180;2023-10-31T15:19:38;12.20;98.20
306;DHT22;137;48.578;9.180;2023-10-31T15:22:05;12.10;98.20
306;DHT22;137;48.578;9.180;2023-10-31T15:24:31;12.10;98.20
306;DHT22;137;48.578;9.180;2023-10-31T15:26:59;12.00;98.20
306;DHT22;137;48.578;9.180;2023-10-31T15:29:26;12.00;98.20
306;DHT22;137;48.578;9.180;2023-10-31T15:31:54;11.90;98.20
306;DHT22;137;48.578;9.180;2023-10-31T15:34:21;11.90;98.20
306;DHT22;137;48.578;9.180;2023-10-31T15:36:48;11.90;98.20
306;DHT22;137;48.578;9.180;2023-10-31T15:39:14;11.90;98.20
306;DHT22;137;48.578;9.180;2023-10-31T15:41:42;11.80;98.20
306;DHT22;137;48.578;9.180;2023-10-31T15:44:09;11.70;98.20
306;DHT22;137;48.578;9.180;2023-10-31T15:46:35;11.50;98.20
306;DHT22;137;48.578;9.180;2023-10-31T15:49:04;11.40;98.20
306;DHT22;137;48.578;9.180;2023-10-31T15:51:31;11.30;98.20
306;DHT22;137;48.578;9.180;2023-10-31T15:53:58;11.20;98.20
306;DHT22;137;48.578;9.180;2023-10-31T15:56:25;11.20;98.20
306;DHT22;137;48.578;9.180;2023-10-31T15:58:52;11.10;98.20
306;DHT22;137;48.578;9.180;2023-10-31T16:01:19;11.10;98.20
306;DHT22;137;48.578;9.180;2023-10-31T16:03:46;11.10;98.20
306;DHT22;137;48.578;9.180;2023-10-31T16:06:14;11.00;98.20
306;DHT22;137;48.578;9.180;2023-10-31T16:08:41;11.00;98.20
306;DHT22;137;48.578;9.180;2023-10-31T16:11:08;10.90;98.20
306;DHT22;137;48.578;9.180;2023-10-31T16:13:35;10.90;98.20
306;DHT22;137;48.578;9.180;2023-10-31T16:16:03;10.90;98.20
306;DHT22;137;48.578;9.180;2023-10-31T16:18:29;10.90;98.20
306;DHT22;137;48.578;9.180;2023-10-31T16:20:56;10.80;98.20
306;DHT22;137;48.578;9.180;2023-10-31T16:23:24;10.80;98.20
306;DHT22;137;48.578;9.180;2023-10-31T16:25:51;10.70;98.20
306;DHT22;137;48.578;9.180;2023-10-31T16:28:18;10.70;98.20
306;DHT22;137;48.578;9.180;2023-10-31T16:30:44;10.60;98.20
306;DHT22;137;48.578;9.180;2023-10-31T16:33:11;10.60;98.20
306;DHT22;137;48.578;9.180;2023-10-31T16:35:38;10.50;98.20
306;DHT22;137;48.578;9.180;2023-10-31T16:38:04;10.40;98.20
306;DHT22;137;48.578;9.180;2023-10-31T16:40:32;10.40;98.20
306;DHT22;137;48.578;9.180;2023-10-31T16:42:59;10.40;98.20
306;DHT22;137;48.578;9.180;2023-10-31T16:45:26;10.30;98.20